Flight Track Log - Related Links

Times and Time Zones

All times are in EDT time to prevent confusion due to time zone crossing. See the UAL395 flight status page for this flight to view local times or setup timezone preferences in your user account.

Time Position Orientation Groundspeed Altitude Reporting Facility
EDT Latitude Longitude Course Direction KTS MPH feet Rate Location/Type
Tue 08:30:53 AM 42.3500 -71.0167 240° Southwest 130 150 600  Level KA90
Tue 08:33:05 AM 42.3169 -70.8931 110° East 216 249 5,400 2,394 Climbing Boston Center
Tue 08:34:00 AM 42.3555 -70.7278 172° South  Level FlightAware Approximate
Tue 08:34:06 AM 42.3319 -70.7858 79° East 244 281 8,300  Level Boston Center
Tue 08:35:00 AM 42.2840 -70.7406 228° Southwest  Level FlightAware Approximate
Tue 08:35:06 AM 42.2686 -70.7203 143° Southeast 249 287 11,000  Level Boston Center
Tue 08:36:00 AM 42.2313 -70.8215 240° Southwest  Level FlightAware Approximate
Tue 08:36:07 AM 42.2008 -70.7978 220° Southwest 199 229 12,000  Level Boston Center
Tue 08:37:04 AM 42.1861 -70.9300 261° West 268 308 12,000  Level Boston Center
Tue 08:38:04 AM 42.1689 -71.0422 258° West 319 367 12,000  Level Boston Center
Tue 08:39:05 AM 42.1517 -71.1800 260° West 342 394 12,000  Level Boston Center
Tue 08:40:06 AM 42.1344 -71.3203 261° West 353 406 12,000  Level Boston Center
Tue 08:41:06 AM 42.1189 -71.4353 260° West 353 406 12,000  Level Boston Center
Tue 08:42:04 AM 42.0992 -71.5756 259° West 353 406 12,000  Level Boston Center
Tue 08:43:04 AM 42.0811 -71.7044 259° West 353 406 12,000 50 Level Boston Center
Tue 08:44:05 AM 42.0653 -71.8219 260° West 353 406 12,100 50 Climbing Boston Center
Tue 08:45:05 AM 42.0450 -71.9508 258° West 353 406 12,100  Level Boston Center
Tue 08:46:04 AM 42.0267 -72.0881 260° West 353 406 12,100  Level Boston Center
Tue 08:47:05 AM 42.0106 -72.2053 260° West 353 406 12,100 -50 Level Boston Center
Tue 08:48:05 AM 41.9897 -72.3422 258° West 353 406 12,000 -50 Descending Boston Center
Tue 08:49:06 AM 41.9753 -72.4542 260° West 353 406 12,000  Level Boston Center
Tue 08:50:06 AM 41.9542 -72.5964 259° West 353 406 12,000  Level Boston Center
Tue 08:51:06 AM 41.9353 -72.7081 257° West 353 406 12,000  Level Boston Center
Tue 08:52:06 AM 41.9078 -72.8306 253° West 353 406 12,000  Level Boston Center
Tue 08:53:04 AM 41.8783 -72.9531 252° West 353 406 12,000  Level Boston Center
Tue 08:54:05 AM 41.8483 -73.0811 253° West 340 391 12,000  Level Boston Center
Tue 08:55:05 AM 41.8206 -73.2033 253° West 340 391 12,000  Level Boston Center
Tue 08:56:06 AM 41.7906 -73.3228 251° West 345 397 12,000  Level Boston Center
Tue 08:57:04 AM 41.7564 -73.4253 246° West 345 397 12,000  Level Boston Center
Tue 08:58:04 AM 41.7011 -73.5467 239° Southwest 345 397 12,000  Level Boston Center
Tue 08:59:05 AM 41.6583 -73.6433 239° Southwest 350 403 12,000 -298 Level Boston Center
Tue 09:00:05 AM 41.6069 -73.7589 239° Southwest 344 396 11,400 -744 Descending Boston Center
Tue 09:01:06 AM 41.5686 -73.8386 237° Southwest 304 350 10,500 -793 Descending Boston Center
Tue 09:02:06 AM 41.5256 -73.9347 239° Southwest 289 333 9,800 -559 Descending Boston Center
Tue 09:03:04 AM 41.4914 -74.0058 237° Southwest 263 303 9,400 -504 Descending Boston Center
Tue 09:04:05 AM 41.4525 -74.0936 239° Southwest 263 303 8,800 -496 Descending Boston Center
Tue 09:05:05 AM 41.4158 -74.1728 238° Southwest 257 296 8,400 -494 Descending Boston Center
Tue 09:06:43 AM 41.3500 -74.3000 235° Southwest 252 290 7,500 -513 Descending New York TRACON
Tue 09:07:37 AM 41.3167 -74.3833 242° Southwest 255 293 7,100 -250 Descending New York TRACON
Tue 09:08:43 AM 41.2667 -74.4500 225° Southwest 258 297 7,000 -238 Descending New York TRACON
Tue 09:09:43 AM 41.2000 -74.4333 169° South 259 298 6,600 -526 Descending New York TRACON
Tue 09:10:37 AM 41.1500 -74.3833 143° Southeast 269 310 6,000 -579 Descending New York TRACON
Tue 09:11:37 AM 41.1000 -74.3167 135° Southeast 267 307 5,500 -600 Descending New York TRACON
Tue 09:12:37 AM 41.0333 -74.2667 150° Southeast 262 302 4,800 -750 Descending New York TRACON
Tue 09:13:37 AM 40.9833 -74.2000 135° Southeast 264 304 4,000 -421 Descending New York TRACON
Tue 09:14:31 AM 40.9333 -74.1500 143° Southeast 264 304 4,000 -368 Level New York TRACON
Tue 09:15:31 AM 40.8667 -74.0833 143° Southeast 259 298 3,300 -800 Descending New York TRACON
Tue 09:16:31 AM 40.8167 -74.0833 180° South 233 268 2,400 -950 Descending New York TRACON
Tue 09:17:31 AM 40.7667 -74.1167 207° Southwest 173 199 1,400 -850 Descending New York TRACON
Tue 09:18:31 AM 40.7333 -74.1500 217° Southwest 130 150 700 -700 Descending New York TRACON

Login

Don't have an account? Register now (free) for customized features, flight alerts, and more!